Terminal Aerodrome Forecast
Issued by NWS State College, PA

Home | Current Version | Previous Version | Text Only | Print | Product List | Glossary On
Versions: 1 2 3 4 5 6 7 8 9 10 11 12 13 14 15 16 17 18 19 20 21 22 23
000
FTUS41 KCTP 131742
TAFMDT
TAF
KMDT 131742Z 1318/1418 29018G28KT P6SM SCT060
     FM132100 27012G18KT P6SM BKN200
     FM140300 18006KT 2SM -SN BR OVC035
     FM141100 25005KT P6SM OVC050=

USA.gov is the U.S. government's official web portal to all federal, state and local government web resources and services.